sensor_id;sensor_type;location;lat;lon;timestamp;P1;durP1;ratioP1;P2;durP2;ratioP2
24151;SDS011;12311;50.866;4.332;2023-06-26T00:02:16;2.78;;;1.52;;
24151;SDS011;12311;50.866;4.332;2023-06-26T00:04:42;3.00;;;1.80;;
24151;SDS011;12311;50.866;4.332;2023-06-26T00:07:08;2.65;;;1.63;;
24151;SDS011;12311;50.866;4.332;2023-06-26T00:09:34;3.40;;;1.58;;
24151;SDS011;12311;50.866;4.332;2023-06-26T00:12:00;2.45;;;1.73;;
24151;SDS011;12311;50.866;4.332;2023-06-26T00:14:26;3.03;;;1.52;;
24151;SDS011;12311;50.866;4.332;2023-06-26T00:16:52;3.25;;;1.48;;
24151;SDS011;12311;50.866;4.332;2023-06-26T00:19:18;4.13;;;1.88;;
24151;SDS011;12311;50.866;4.332;2023-06-26T00:21:43;2.75;;;1.10;;
24151;SDS011;12311;50.866;4.332;2023-06-26T00:24:16;2.15;;;1.17;;
24151;SDS011;12311;50.866;4.332;2023-06-26T00:26:42;4.95;;;1.60;;
24151;SDS011;12311;50.866;4.332;2023-06-26T00:29:08;3.75;;;1.15;;
24151;SDS011;12311;50.866;4.332;2023-06-26T00:31:34;3.42;;;1.00;;
24151;SDS011;12311;50.866;4.332;2023-06-26T00:34:00;2.15;;;1.10;;
24151;SDS011;12311;50.866;4.332;2023-06-26T00:36:26;2.05;;;1.13;;
24151;SDS011;12311;50.866;4.332;2023-06-26T00:38:52;2.08;;;1.17;;
24151;SDS011;12311;50.866;4.332;2023-06-26T00:41:18;4.70;;;1.00;;
24151;SDS011;12311;50.866;4.332;2023-06-26T00:43:44;3.08;;;1.10;;
24151;SDS011;12311;50.866;4.332;2023-06-26T00:46:10;3.47;;;1.42;;
24151;SDS011;12311;50.866;4.332;2023-06-26T00:48:38;3.78;;;1.45;;
24151;SDS011;12311;50.866;4.332;2023-06-26T00:51:06;3.15;;;1.35;;
24151;SDS011;12311;50.866;4.332;2023-06-26T00:53:32;3.28;;;1.20;;
24151;SDS011;12311;50.866;4.332;2023-06-26T00:55:58;2.78;;;1.20;;
24151;SDS011;12311;50.866;4.332;2023-06-26T00:58:25;1.42;;;0.93;;
24151;SDS011;12311;50.866;4.332;2023-06-26T01:00:52;1.83;;;1.20;;
24151;SDS011;12311;50.866;4.332;2023-06-26T01:03:18;3.40;;;1.48;;
24151;SDS011;12311;50.866;4.332;2023-06-26T01:05:44;2.40;;;1.00;;
24151;SDS011;12311;50.866;4.332;2023-06-26T01:08:14;5.55;;;1.35;;
24151;SDS011;12311;50.866;4.332;2023-06-26T01:10:41;3.20;;;1.30;;
24151;SDS011;12311;50.866;4.332;2023-06-26T01:13:07;3.22;;;1.25;;
24151;SDS011;12311;50.866;4.332;2023-06-26T01:15:33;2.60;;;0.93;;
24151;SDS011;12311;50.866;4.332;2023-06-26T01:17:59;3.30;;;1.02;;
24151;SDS011;12311;50.866;4.332;2023-06-26T01:20:29;3.40;;;1.48;;
24151;SDS011;12311;50.866;4.332;2023-06-26T01:28:41;2.42;;;0.85;;
24151;SDS011;12311;50.866;4.332;2023-06-26T01:31:07;4.13;;;1.35;;
24151;SDS011;12311;50.866;4.332;2023-06-26T01:33:33;2.22;;;1.10;;
24151;SDS011;12311;50.866;4.332;2023-06-26T01:36:00;1.83;;;1.00;;
24151;SDS011;12311;50.866;4.332;2023-06-26T01:38:26;3.70;;;1.10;;
24151;SDS011;12311;50.866;4.332;2023-06-26T01:40:52;5.63;;;1.65;;
24151;SDS011;12311;50.866;4.332;2023-06-26T01:46:16;6.22;;;1.30;;
24151;SDS011;12311;50.866;4.332;2023-06-26T01:48:59;2.40;;;0.98;;
24151;SDS011;12311;50.866;4.332;2023-06-26T01:51:35;3.83;;;1.25;;
24151;SDS011;12311;50.866;4.332;2023-06-26T01:54:06;5.55;;;1.13;;
24151;SDS011;12311;50.866;4.332;2023-06-26T01:56:38;3.30;;;1.35;;
24151;SDS011;12311;50.866;4.332;2023-06-26T01:59:05;2.35;;;1.20;;
24151;SDS011;12311;50.866;4.332;2023-06-26T02:01:32;3.17;;;1.10;;
24151;SDS011;12311;50.866;4.332;2023-06-26T02:03:58;2.13;;;1.20;;
24151;SDS011;12311;50.866;4.332;2023-06-26T02:06:24;2.65;;;1.55;;
24151;SDS011;12311;50.866;4.332;2023-06-26T02:08:50;2.75;;;1.25;;
24151;SDS011;12311;50.866;4.332;2023-06-26T02:11:16;5.47;;;1.30;;
24151;SDS011;12311;50.866;4.332;2023-06-26T02:13:41;3.20;;;0.88;;
24151;SDS011;12311;50.866;4.332;2023-06-26T02:16:07;2.42;;;1.30;;
24151;SDS011;12311;50.866;4.332;2023-06-26T02:18:33;3.63;;;1.52;;
24151;SDS011;12311;50.866;4.332;2023-06-26T02:20:58;3.78;;;1.45;;
24151;SDS011;12311;50.866;4.332;2023-06-26T02:23:24;6.20;;;1.33;;
24151;SDS011;12311;50.866;4.332;2023-06-26T02:25:50;2.42;;;1.08;;
24151;SDS011;12311;50.866;4.332;2023-06-26T02:28:16;2.50;;;1.27;;
24151;SDS011;12311;50.866;4.332;2023-06-26T02:30:41;3.08;;;1.10;;
24151;SDS011;12311;50.866;4.332;2023-06-26T02:33:07;2.05;;;1.20;;
24151;SDS011;12311;50.866;4.332;2023-06-26T02:35:33;3.55;;;1.67;;
24151;SDS011;12311;50.866;4.332;2023-06-26T02:37:59;4.10;;;1.42;;
24151;SDS011;12311;50.866;4.332;2023-06-26T02:40:24;2.78;;;1.35;;
24151;SDS011;12311;50.866;4.332;2023-06-26T02:42:50;4.38;;;1.65;;
24151;SDS011;12311;50.866;4.332;2023-06-26T02:45:15;3.67;;;1.42;;
24151;SDS011;12311;50.866;4.332;2023-06-26T02:47:41;2.83;;;1.13;;
24151;SDS011;12311;50.866;4.332;2023-06-26T02:50:07;1.77;;;0.77;;
24151;SDS011;12311;50.866;4.332;2023-06-26T02:52:33;4.60;;;1.30;;
24151;SDS011;12311;50.866;4.332;2023-06-26T02:54:58;2.20;;;1.08;;
24151;SDS011;12311;50.866;4.332;2023-06-26T02:57:24;2.83;;;1.13;;
24151;SDS011;12311;50.866;4.332;2023-06-26T02:59:50;4.10;;;1.67;;
24151;SDS011;12311;50.866;4.332;2023-06-26T03:02:15;2.88;;;1.30;;
24151;SDS011;12311;50.866;4.332;2023-06-26T03:04:41;2.90;;;1.33;;
24151;SDS011;12311;50.866;4.332;2023-06-26T03:07:08;6.38;;;1.48;;
24151;SDS011;12311;50.866;4.332;2023-06-26T03:09:34;3.47;;;1.02;;
24151;SDS011;12311;50.866;4.332;2023-06-26T03:12:00;2.13;;;1.05;;
24151;SDS011;12311;50.866;4.332;2023-06-26T03:14:25;3.75;;;1.55;;
24151;SDS011;12311;50.866;4.332;2023-06-26T03:16:52;4.63;;;1.63;;
24151;SDS011;12311;50.866;4.332;2023-06-26T03:19:18;5.93;;;1.98;;
24151;SDS011;12311;50.866;4.332;2023-06-26T03:21:43;2.92;;;1.23;;
24151;SDS011;12311;50.866;4.332;2023-06-26T03:24:09;4.78;;;1.70;;
24151;SDS011;12311;50.866;4.332;2023-06-26T03:26:35;5.22;;;1.27;;
24151;SDS011;12311;50.866;4.332;2023-06-26T03:29:00;2.75;;;1.65;;
24151;SDS011;12311;50.866;4.332;2023-06-26T03:31:26;3.17;;;1.40;;
24151;SDS011;12311;50.866;4.332;2023-06-26T03:33:52;3.63;;;1.27;;
24151;SDS011;12311;50.866;4.332;2023-06-26T03:36:17;7.85;;;2.03;;
24151;SDS011;12311;50.866;4.332;2023-06-26T03:38:43;2.53;;;1.20;;
24151;SDS011;12311;50.866;4.332;2023-06-26T03:41:08;3.65;;;1.55;;
24151;SDS011;12311;50.866;4.332;2023-06-26T03:43:34;9.73;;;2.08;;
24151;SDS011;12311;50.866;4.332;2023-06-26T03:46:00;4.63;;;1.52;;
24151;SDS011;12311;50.866;4.332;2023-06-26T03:48:25;7.53;;;1.48;;
24151;SDS011;12311;50.866;4.332;2023-06-26T03:50:51;5.18;;;2.15;;
24151;SDS011;12311;50.866;4.332;2023-06-26T03:53:17;4.55;;;1.80;;
24151;SDS011;12311;50.866;4.332;2023-06-26T03:55:42;5.88;;;1.13;;
24151;SDS011;12311;50.866;4.332;2023-06-26T03:58:08;5.45;;;1.70;;
24151;SDS011;12311;50.866;4.332;2023-06-26T04:00:34;4.70;;;1.35;;
24151;SDS011;12311;50.866;4.332;2023-06-26T04:02:59;5.25;;;1.90;;
24151;SDS011;12311;50.866;4.332;2023-06-26T04:05:25;6.65;;;1.70;;
24151;SDS011;12311;50.866;4.332;2023-06-26T04:07:51;7.15;;;1.20;;
24151;SDS011;12311;50.866;4.332;2023-06-26T04:10:18;5.22;;;1.95;;
24151;SDS011;12311;50.866;4.332;2023-06-26T04:12:44;3.45;;;1.67;;
24151;SDS011;12311;50.866;4.332;2023-06-26T04:15:10;5.78;;;1.25;;
24151;SDS011;12311;50.866;4.332;2023-06-26T04:17:36;8.60;;;1.73;;
24151;SDS011;12311;50.866;4.332;2023-06-26T04:20:01;2.10;;;1.48;;
24151;SDS011;12311;50.866;4.332;2023-06-26T04:22:31;2.95;;;1.42;;
24151;SDS011;12311;50.866;4.332;2023-06-26T04:24:57;4.05;;;1.38;;
24151;SDS011;12311;50.866;4.332;2023-06-26T04:27:23;3.42;;;1.65;;
24151;SDS011;12311;50.866;4.332;2023-06-26T04:29:48;9.52;;;2.03;;
24151;SDS011;12311;50.866;4.332;2023-06-26T04:32:14;8.55;;;1.85;;
24151;SDS011;12311;50.866;4.332;2023-06-26T04:34:40;2.67;;;1.30;;
24151;SDS011;12311;50.866;4.332;2023-06-26T04:37:08;5.13;;;1.65;;
24151;SDS011;12311;50.866;4.332;2023-06-26T04:39:35;8.50;;;1.63;;
24151;SDS011;12311;50.866;4.332;2023-06-26T04:42:02;9.88;;;2.42;;
24151;SDS011;12311;50.866;4.332;2023-06-26T04:44:28;6.88;;;2.03;;
24151;SDS011;12311;50.866;4.332;2023-06-26T04:46:54;3.67;;;1.08;;
24151;SDS011;12311;50.866;4.332;2023-06-26T04:49:20;4.15;;;1.27;;
24151;SDS011;12311;50.866;4.332;2023-06-26T04:51:45;5.13;;;1.77;;
24151;SDS011;12311;50.866;4.332;2023-06-26T04:54:11;5.40;;;1.42;;
24151;SDS011;12311;50.866;4.332;2023-06-26T04:56:37;8.85;;;1.83;;
24151;SDS011;12311;50.866;4.332;2023-06-26T04:59:05;8.80;;;1.88;;
24151;SDS011;12311;50.866;4.332;2023-06-26T05:01:31;2.90;;;1.02;;
24151;SDS011;12311;50.866;4.332;2023-06-26T05:03:57;2.90;;;1.10;;
24151;SDS011;12311;50.866;4.332;2023-06-26T05:06:26;6.05;;;2.15;;
24151;SDS011;12311;50.866;4.332;2023-06-26T05:08:51;5.88;;;1.23;;
24151;SDS011;12311;50.866;4.332;2023-06-26T05:11:17;3.08;;;1.38;;
24151;SDS011;12311;50.866;4.332;2023-06-26T05:13:43;2.85;;;1.67;;
24151;SDS011;12311;50.866;4.332;2023-06-26T05:16:09;4.75;;;1.77;;
24151;SDS011;12311;50.866;4.332;2023-06-26T05:18:35;7.22;;;1.10;;
24151;SDS011;12311;50.866;4.332;2023-06-26T05:21:01;4.70;;;1.17;;
24151;SDS011;12311;50.866;4.332;2023-06-26T05:23:28;4.18;;;1.30;;
24151;SDS011;12311;50.866;4.332;2023-06-26T05:25:56;6.78;;;1.40;;
24151;SDS011;12311;50.866;4.332;2023-06-26T05:28:23;5.30;;;1.10;;
24151;SDS011;12311;50.866;4.332;2023-06-26T05:30:50;2.08;;;1.27;;
24151;SDS011;12311;50.866;4.332;2023-06-26T05:33:17;4.30;;;1.15;;
24151;SDS011;12311;50.866;4.332;2023-06-26T05:35:47;6.60;;;1.00;;
24151;SDS011;12311;50.866;4.332;2023-06-26T05:38:15;4.78;;;1.58;;
24151;SDS011;12311;50.866;4.332;2023-06-26T05:40:41;2.85;;;1.00;;
24151;SDS011;12311;50.866;4.332;2023-06-26T05:43:07;4.57;;;1.25;;
24151;SDS011;12311;50.866;4.332;2023-06-26T05:45:33;3.63;;;1.05;;
24151;SDS011;12311;50.866;4.332;2023-06-26T05:47:58;3.10;;;1.00;;
24151;SDS011;12311;50.866;4.332;2023-06-26T05:50:24;5.28;;;1.17;;
24151;SDS011;12311;50.866;4.332;2023-06-26T05:52:51;3.97;;;0.75;;
24151;SDS011;12311;50.866;4.332;2023-06-26T05:55:17;2.55;;;1.20;;
24151;SDS011;12311;50.866;4.332;2023-06-26T05:57:43;4.30;;;0.90;;
24151;SDS011;12311;50.866;4.332;2023-06-26T06:00:11;8.15;;;1.85;;
24151;SDS011;12311;50.866;4.332;2023-06-26T06:02:38;1.20;;;0.63;;
24151;SDS011;12311;50.866;4.332;2023-06-26T06:05:04;2.83;;;1.30;;
24151;SDS011;12311;50.866;4.332;2023-06-26T06:07:33;7.57;;;1.95;;
24151;SDS011;12311;50.866;4.332;2023-06-26T06:09:59;15.23;;;1.75;;
24151;SDS011;12311;50.866;4.332;2023-06-26T06:12:26;2.95;;;0.88;;
24151;SDS011;12311;50.866;4.332;2023-06-26T06:14:52;1.95;;;1.27;;
24151;SDS011;12311;50.866;4.332;2023-06-26T06:17:19;8.13;;;1.45;;
24151;SDS011;12311;50.866;4.332;2023-06-26T06:19:45;3.72;;;0.90;;
24151;SDS011;12311;50.866;4.332;2023-06-26T06:22:11;8.40;;;0.93;;
24151;SDS011;12311;50.866;4.332;2023-06-26T06:24:36;1.95;;;0.73;;
24151;SDS011;12311;50.866;4.332;2023-06-26T06:27:02;2.03;;;1.00;;
24151;SDS011;12311;50.866;4.332;2023-06-26T06:29:28;12.48;;;1.70;;
24151;SDS011;12311;50.866;4.332;2023-06-26T06:31:54;0.95;;;0.70;;
24151;SDS011;12311;50.866;4.332;2023-06-26T06:34:19;1.27;;;0.77;;
24151;SDS011;12311;50.866;4.332;2023-06-26T06:36:46;3.45;;;0.82;;
24151;SDS011;12311;50.866;4.332;2023-06-26T06:39:12;1.08;;;0.75;;
24151;SDS011;12311;50.866;4.332;2023-06-26T06:41:38;1.90;;;0.77;;
24151;SDS011;12311;50.866;4.332;2023-06-26T06:44:03;2.13;;;1.15;;
24151;SDS011;12311;50.866;4.332;2023-06-26T06:46:29;1.13;;;0.80;;
24151;SDS011;12311;50.866;4.332;2023-06-26T06:48:55;3.17;;;1.10;;
24151;SDS011;12311;50.866;4.332;2023-06-26T06:51:21;8.43;;;0.98;;
24151;SDS011;12311;50.866;4.332;2023-06-26T06:53:47;1.10;;;0.73;;
24151;SDS011;12311;50.866;4.332;2023-06-26T06:56:13;3.75;;;0.63;;
24151;SDS011;12311;50.866;4.332;2023-06-26T06:58:38;10.45;;;1.52;;
24151;SDS011;12311;50.866;4.332;2023-06-26T07:01:07;3.97;;;0.73;;
24151;SDS011;12311;50.866;4.332;2023-06-26T07:03:34;4.10;;;0.80;;
24151;SDS011;12311;50.866;4.332;2023-06-26T07:06:01;2.63;;;0.88;;
24151;SDS011;12311;50.866;4.332;2023-06-26T07:08:28;10.75;;;0.90;;
24151;SDS011;12311;50.866;4.332;2023-06-26T07:10:54;0.77;;;0.55;;
24151;SDS011;12311;50.866;4.332;2023-06-26T07:13:21;4.47;;;0.80;;
24151;SDS011;12311;50.866;4.332;2023-06-26T07:15:47;1.00;;;0.70;;
24151;SDS011;12311;50.866;4.332;2023-06-26T07:18:13;0.85;;;0.60;;
24151;SDS011;12311;50.866;4.332;2023-06-26T07:20:39;2.47;;;0.60;;
24151;SDS011;12311;50.866;4.332;2023-06-26T07:23:05;1.55;;;1.10;;
24151;SDS011;12311;50.866;4.332;2023-06-26T07:25:31;1.90;;;0.90;;
24151;SDS011;12311;50.866;4.332;2023-06-26T07:27:57;3.60;;;0.75;;
24151;SDS011;12311;50.866;4.332;2023-06-26T07:30:22;6.53;;;0.93;;
24151;SDS011;12311;50.866;4.332;2023-06-26T07:32:49;0.82;;;0.60;;
24151;SDS011;12311;50.866;4.332;2023-06-26T07:35:15;1.63;;;0.40;;
24151;SDS011;12311;50.866;4.332;2023-06-26T07:37:41;1.38;;;0.80;;
24151;SDS011;12311;50.866;4.332;2023-06-26T07:40:07;2.70;;;0.80;;
24151;SDS011;12311;50.866;4.332;2023-06-26T07:42:33;1.65;;;0.52;;
24151;SDS011;12311;50.866;4.332;2023-06-26T07:44:59;3.03;;;1.33;;
24151;SDS011;12311;50.866;4.332;2023-06-26T07:47:25;1.20;;;0.80;;
24151;SDS011;12311;50.866;4.332;2023-06-26T07:49:50;11.27;;;0.88;;
24151;SDS011;12311;50.866;4.332;2023-06-26T07:52:18;2.58;;;0.60;;
24151;SDS011;12311;50.866;4.332;2023-06-26T07:54:44;4.30;;;0.98;;
24151;SDS011;12311;50.866;4.332;2023-06-26T07:57:09;1.45;;;0.65;;
24151;SDS011;12311;50.866;4.332;2023-06-26T07:59:36;0.85;;;0.70;;
24151;SDS011;12311;50.866;4.332;2023-06-26T08:02:02;2.08;;;0.85;;
24151;SDS011;12311;50.866;4.332;2023-06-26T08:04:28;1.73;;;1.05;;
24151;SDS011;12311;50.866;4.332;2023-06-26T08:06:57;1.38;;;0.68;;
24151;SDS011;12311;50.866;4.332;2023-06-26T08:09:24;0.93;;;0.65;;
24151;SDS011;12311;50.866;4.332;2023-06-26T08:11:53;3.25;;;0.80;;
24151;SDS011;12311;50.866;4.332;2023-06-26T08:14:20;1.15;;;0.50;;
24151;SDS011;12311;50.866;4.332;2023-06-26T08:16:46;4.15;;;0.85;;
24151;SDS011;12311;50.866;4.332;2023-06-26T08:19:12;1.95;;;0.93;;
24151;SDS011;12311;50.866;4.332;2023-06-26T08:21:42;3.85;;;0.57;;
24151;SDS011;12311;50.866;4.332;2023-06-26T08:24:08;2.63;;;0.60;;
24151;SDS011;12311;50.866;4.332;2023-06-26T08:26:35;0.90;;;0.70;;
24151;SDS011;12311;50.866;4.332;2023-06-26T08:29:01;4.32;;;1.15;;
24151;SDS011;12311;50.866;4.332;2023-06-26T08:31:32;2.45;;;0.90;;
24151;SDS011;12311;50.866;4.332;2023-06-26T08:34:02;2.17;;;0.70;;
24151;SDS011;12311;50.866;4.332;2023-06-26T08:36:29;0.60;;;0.40;;
24151;SDS011;12311;50.866;4.332;2023-06-26T08:38:54;1.58;;;0.68;;
24151;SDS011;12311;50.866;4.332;2023-06-26T08:41:20;0.65;;;0.30;;
24151;SDS011;12311;50.866;4.332;2023-06-26T08:43:46;3.60;;;0.75;;
24151;SDS011;12311;50.866;4.332;2023-06-26T08:46:12;0.90;;;0.35;;
24151;SDS011;12311;50.866;4.332;2023-06-26T08:48:39;4.95;;;0.65;;
24151;SDS011;12311;50.866;4.332;2023-06-26T08:51:11;2.27;;;0.60;;
24151;SDS011;12311;50.866;4.332;2023-06-26T08:56:12;2.85;;;1.15;;
24151;SDS011;12311;50.866;4.332;2023-06-26T08:58:42;0.75;;;0.40;;
24151;SDS011;12311;50.866;4.332;2023-06-26T09:01:08;0.50;;;0.40;;
24151;SDS011;12311;50.866;4.332;2023-06-26T09:03:34;0.85;;;0.63;;
24151;SDS011;12311;50.866;4.332;2023-06-26T09:06:00;3.35;;;1.02;;
24151;SDS011;12311;50.866;4.332;2023-06-26T09:08:26;1.38;;;0.88;;
24151;SDS011;12311;50.866;4.332;2023-06-26T09:10:52;2.55;;;0.60;;
24151;SDS011;12311;50.866;4.332;2023-06-26T09:13:18;2.10;;;1.27;;
24151;SDS011;12311;50.866;4.332;2023-06-26T09:15:44;3.40;;;1.08;;
24151;SDS011;12311;50.866;4.332;2023-06-26T09:18:10;1.63;;;0.60;;
24151;SDS011;12311;50.866;4.332;2023-06-26T09:20:37;2.08;;;1.13;;
24151;SDS011;12311;50.866;4.332;2023-06-26T09:23:03;5.50;;;0.68;;
24151;SDS011;12311;50.866;4.332;2023-06-26T09:25:29;1.77;;;0.77;;
24151;SDS011;12311;50.866;4.332;2023-06-26T09:27:56;1.63;;;0.60;;
24151;SDS011;12311;50.866;4.332;2023-06-26T09:30:22;2.00;;;0.52;;
24151;SDS011;12311;50.866;4.332;2023-06-26T09:32:48;7.60;;;0.70;;
24151;SDS011;12311;50.866;4.332;2023-06-26T09:35:15;1.75;;;1.00;;
24151;SDS011;12311;50.866;4.332;2023-06-26T09:37:41;0.68;;;0.30;;
24151;SDS011;12311;50.866;4.332;2023-06-26T09:40:08;4.95;;;0.60;;
24151;SDS011;12311;50.866;4.332;2023-06-26T09:42:34;3.72;;;0.82;;
24151;SDS011;12311;50.866;4.332;2023-06-26T09:45:01;1.83;;;0.50;;
24151;SDS011;12311;50.866;4.332;2023-06-26T09:47:29;1.75;;;1.08;;
24151;SDS011;12311;50.866;4.332;2023-06-26T09:49:56;1.75;;;0.60;;
24151;SDS011;12311;50.866;4.332;2023-06-26T09:52:25;2.20;;;0.50;;
24151;SDS011;12311;50.866;4.332;2023-06-26T09:54:51;6.00;;;0.52;;
24151;SDS011;12311;50.866;4.332;2023-06-26T09:57:34;2.85;;;0.38;;
24151;SDS011;12311;50.866;4.332;2023-06-26T10:00:00;0.70;;;0.52;;
24151;SDS011;12311;50.866;4.332;2023-06-26T10:02:26;6.63;;;0.90;;
24151;SDS011;12311;50.866;4.332;2023-06-26T10:04:52;0.95;;;0.60;;
24151;SDS011;12311;50.866;4.332;2023-06-26T10:07:18;1.48;;;0.50;;
24151;SDS011;12311;50.866;4.332;2023-06-26T10:09:45;0.40;;;0.40;;
24151;SDS011;12311;50.866;4.332;2023-06-26T10:12:24;4.05;;;0.65;;
24151;SDS011;12311;50.866;4.332;2023-06-26T10:14:53;1.63;;;0.68;;
24151;SDS011;12311;50.866;4.332;2023-06-26T10:17:20;4.25;;;0.50;;
24151;SDS011;12311;50.866;4.332;2023-06-26T10:19:49;1.15;;;0.70;;
24151;SDS011;12311;50.866;4.332;2023-06-26T10:22:17;1.30;;;0.55;;
24151;SDS011;12311;50.866;4.332;2023-06-26T10:24:45;3.03;;;1.27;;
24151;SDS011;12311;50.866;4.332;2023-06-26T10:27:20;1.95;;;0.82;;
24151;SDS011;12311;50.866;4.332;2023-06-26T10:29:47;1.10;;;0.63;;
24151;SDS011;12311;50.866;4.332;2023-06-26T10:32:17;5.70;;;0.98;;
24151;SDS011;12311;50.866;4.332;2023-06-26T10:34:44;1.33;;;0.65;;
24151;SDS011;12311;50.866;4.332;2023-06-26T10:37:11;1.48;;;1.02;;
24151;SDS011;12311;50.866;4.332;2023-06-26T10:39:52;1.20;;;0.60;;
24151;SDS011;12311;50.866;4.332;2023-06-26T10:42:42;0.88;;;0.68;;
24151;SDS011;12311;50.866;4.332;2023-06-26T10:45:11;1.38;;;0.50;;
24151;SDS011;12311;50.866;4.332;2023-06-26T10:47:47;1.13;;;0.65;;
24151;SDS011;12311;50.866;4.332;2023-06-26T10:50:26;1.50;;;0.82;;
24151;SDS011;12311;50.866;4.332;2023-06-26T10:58:29;3.95;;;0.90;;
24151;SDS011;12311;50.866;4.332;2023-06-26T11:03:39;1.35;;;0.95;;
24151;SDS011;12311;50.866;4.332;2023-06-26T11:06:10;3.20;;;1.95;;
24151;SDS011;12311;50.866;4.332;2023-06-26T11:08:46;4.38;;;1.38;;
24151;SDS011;12311;50.866;4.332;2023-06-26T11:11:18;3.20;;;1.10;;
24151;SDS011;12311;50.866;4.332;2023-06-26T11:13:46;1.73;;;0.93;;
24151;SDS011;12311;50.866;4.332;2023-06-26T11:16:13;3.75;;;0.93;;
24151;SDS011;12311;50.866;4.332;2023-06-26T11:18:39;1.30;;;1.15;;
24151;SDS011;12311;50.866;4.332;2023-06-26T11:21:06;3.00;;;1.00;;
24151;SDS011;12311;50.866;4.332;2023-06-26T11:23:40;2.20;;;1.10;;
24151;SDS011;12311;50.866;4.332;2023-06-26T11:26:16;2.45;;;1.63;;
24151;SDS011;12311;50.866;4.332;2023-06-26T11:29:01;2.42;;;1.40;;
24151;SDS011;12311;50.866;4.332;2023-06-26T11:31:29;2.08;;;1.33;;
24151;SDS011;12311;50.866;4.332;2023-06-26T11:33:56;2.90;;;1.00;;
24151;SDS011;12311;50.866;4.332;2023-06-26T11:36:26;5.82;;;1.30;;
24151;SDS011;12311;50.866;4.332;2023-06-26T11:39:00;1.77;;;1.02;;
24151;SDS011;12311;50.866;4.332;2023-06-26T11:41:29;1.83;;;1.00;;
24151;SDS011;12311;50.866;4.332;2023-06-26T11:43:56;16.77;;;1.40;;
24151;SDS011;12311;50.866;4.332;2023-06-26T11:46:27;2.50;;;0.90;;
24151;SDS011;12311;50.866;4.332;2023-06-26T11:48:53;3.15;;;0.93;;
24151;SDS011;12311;50.866;4.332;2023-06-26T11:51:19;0.85;;;0.80;;
24151;SDS011;12311;50.866;4.332;2023-06-26T11:53:45;0.93;;;0.80;;
24151;SDS011;12311;50.866;4.332;2023-06-26T11:56:13;0.93;;;0.68;;
24151;SDS011;12311;50.866;4.332;2023-06-26T12:01:25;1.45;;;1.00;;
24151;SDS011;12311;50.866;4.332;2023-06-26T12:03:54;1.20;;;0.90;;
24151;SDS011;12311;50.866;4.332;2023-06-26T12:06:23;2.28;;;0.90;;
24151;SDS011;12311;50.866;4.332;2023-06-26T12:08:49;3.97;;;0.88;;
24151;SDS011;12311;50.866;4.332;2023-06-26T12:11:17;1.90;;;1.02;;
24151;SDS011;12311;50.866;4.332;2023-06-26T12:13:45;1.67;;;0.75;;
24151;SDS011;12311;50.866;4.332;2023-06-26T12:16:11;1.02;;;0.50;;
24151;SDS011;12311;50.866;4.332;2023-06-26T12:18:39;2.00;;;0.98;;
24151;SDS011;12311;50.866;4.332;2023-06-26T12:21:05;2.03;;;0.50;;
24151;SDS011;12311;50.866;4.332;2023-06-26T12:23:40;1.20;;;0.60;;
24151;SDS011;12311;50.866;4.332;2023-06-26T12:26:19;1.63;;;0.60;;
24151;SDS011;12311;50.866;4.332;2023-06-26T12:28:46;1.60;;;0.52;;
24151;SDS011;12311;50.866;4.332;2023-06-26T12:31:13;3.10;;;0.70;;
24151;SDS011;12311;50.866;4.332;2023-06-26T12:33:39;4.25;;;0.98;;
24151;SDS011;12311;50.866;4.332;2023-06-26T12:36:09;0.88;;;0.43;;
24151;SDS011;12311;50.866;4.332;2023-06-26T12:38:39;2.10;;;0.68;;
24151;SDS011;12311;50.866;4.332;2023-06-26T12:41:05;1.70;;;0.70;;
24151;SDS011;12311;50.866;4.332;2023-06-26T12:43:38;1.88;;;0.93;;
24151;SDS011;12311;50.866;4.332;2023-06-26T12:46:04;2.53;;;0.57;;
24151;SDS011;12311;50.866;4.332;2023-06-26T12:48:40;1.52;;;0.50;;
24151;SDS011;12311;50.866;4.332;2023-06-26T12:51:12;1.95;;;0.68;;
24151;SDS011;12311;50.866;4.332;2023-06-26T12:53:38;1.23;;;0.70;;
24151;SDS011;12311;50.866;4.332;2023-06-26T12:56:08;1.48;;;0.85;;
24151;SDS011;12311;50.866;4.332;2023-06-26T12:58:34;11.30;;;1.20;;
24151;SDS011;12311;50.866;4.332;2023-06-26T13:01:02;20.23;;;1.83;;
24151;SDS011;12311;50.866;4.332;2023-06-26T13:03:29;5.60;;;0.60;;
24151;SDS011;12311;50.866;4.332;2023-06-26T13:05:55;14.13;;;1.55;;
24151;SDS011;12311;50.866;4.332;2023-06-26T13:08:21;4.95;;;0.73;;
24151;SDS011;12311;50.866;4.332;2023-06-26T13:10:46;25.88;;;1.33;;
24151;SDS011;12311;50.866;4.332;2023-06-26T13:13:12;2.45;;;0.60;;
24151;SDS011;12311;50.866;4.332;2023-06-26T13:15:38;3.58;;;0.65;;
24151;SDS011;12311;50.866;4.332;2023-06-26T13:18:04;1.48;;;0.63;;
24151;SDS011;12311;50.866;4.332;2023-06-26T13:20:29;1.88;;;0.50;;
24151;SDS011;12311;50.866;4.332;2023-06-26T13:22:55;1.55;;;0.40;;
24151;SDS011;12311;50.866;4.332;2023-06-26T13:25:21;1.83;;;0.68;;
24151;SDS011;12311;50.866;4.332;2023-06-26T13:27:47;2.85;;;0.63;;
24151;SDS011;12311;50.866;4.332;2023-06-26T13:30:14;1.25;;;0.57;;
24151;SDS011;12311;50.866;4.332;2023-06-26T13:32:40;3.33;;;0.70;;
24151;SDS011;12311;50.866;4.332;2023-06-26T13:35:06;1.48;;;0.70;;
24151;SDS011;12311;50.866;4.332;2023-06-26T13:37:32;1.35;;;0.88;;
24151;SDS011;12311;50.866;4.332;2023-06-26T13:40:01;1.00;;;0.60;;
24151;SDS011;12311;50.866;4.332;2023-06-26T13:42:28;2.42;;;0.60;;
24151;SDS011;12311;50.866;4.332;2023-06-26T13:44:54;9.35;;;1.95;;
24151;SDS011;12311;50.866;4.332;2023-06-26T13:47:20;5.28;;;0.60;;
24151;SDS011;12311;50.866;4.332;2023-06-26T13:49:46;1.00;;;0.50;;
24151;SDS011;12311;50.866;4.332;2023-06-26T13:52:11;4.85;;;0.75;;
24151;SDS011;12311;50.866;4.332;2023-06-26T13:54:37;0.65;;;0.45;;
24151;SDS011;12311;50.866;4.332;2023-06-26T13:57:05;1.73;;;0.50;;
24151;SDS011;12311;50.866;4.332;2023-06-26T13:59:32;1.73;;;0.30;;
24151;SDS011;12311;50.866;4.332;2023-06-26T14:01:58;2.67;;;0.30;;
24151;SDS011;12311;50.866;4.332;2023-06-26T14:04:24;1.42;;;0.35;;
24151;SDS011;12311;50.866;4.332;2023-06-26T14:06:50;4.70;;;0.50;;
24151;SDS011;12311;50.866;4.332;2023-06-26T14:09:16;0.77;;;0.52;;
24151;SDS011;12311;50.866;4.332;2023-06-26T14:11:43;2.60;;;0.40;;
24151;SDS011;12311;50.866;4.332;2023-06-26T14:14:09;1.20;;;0.63;;
24151;SDS011;12311;50.866;4.332;2023-06-26T14:16:34;0.82;;;0.75;;
24151;SDS011;12311;50.866;4.332;2023-06-26T14:19:00;0.80;;;0.32;;
24151;SDS011;12311;50.866;4.332;2023-06-26T14:21:26;1.10;;;0.40;;
24151;SDS011;12311;50.866;4.332;2023-06-26T14:23:52;1.33;;;0.80;;
24151;SDS011;12311;50.866;4.332;2023-06-26T14:26:19;3.30;;;0.80;;
24151;SDS011;12311;50.866;4.332;2023-06-26T14:28:45;4.32;;;0.68;;
24151;SDS011;12311;50.866;4.332;2023-06-26T14:31:11;0.85;;;0.47;;
24151;SDS011;12311;50.866;4.332;2023-06-26T14:33:36;2.75;;;0.65;;
24151;SDS011;12311;50.866;4.332;2023-06-26T14:36:02;1.77;;;0.40;;
24151;SDS011;12311;50.866;4.332;2023-06-26T14:38:28;1.13;;;0.52;;
24151;SDS011;12311;50.866;4.332;2023-06-26T14:40:54;2.55;;;0.65;;
24151;SDS011;12311;50.866;4.332;2023-06-26T14:43:19;2.15;;;0.50;;
24151;SDS011;12311;50.866;4.332;2023-06-26T14:45:45;1.60;;;0.65;;
24151;SDS011;12311;50.866;4.332;2023-06-26T14:48:11;1.20;;;0.60;;
24151;SDS011;12311;50.866;4.332;2023-06-26T14:50:37;1.67;;;0.70;;
24151;SDS011;12311;50.866;4.332;2023-06-26T14:53:02;1.50;;;0.60;;
24151;SDS011;12311;50.866;4.332;2023-06-26T14:55:28;0.55;;;0.40;;
24151;SDS011;12311;50.866;4.332;2023-06-26T14:57:53;2.33;;;0.95;;
24151;SDS011;12311;50.866;4.332;2023-06-26T15:00:19;8.18;;;1.38;;
24151;SDS011;12311;50.866;4.332;2023-06-26T15:02:46;2.75;;;0.63;;
24151;SDS011;12311;50.866;4.332;2023-06-26T15:05:12;1.05;;;0.47;;
24151;SDS011;12311;50.866;4.332;2023-06-26T15:07:38;0.70;;;0.50;;
24151;SDS011;12311;50.866;4.332;2023-06-26T15:10:04;0.60;;;0.55;;